sensor_id;sensor_type;location;lat;lon;timestamp;temperature;humidity
58469;DHT22;44257;44.804;10.220;2024-02-26T00:01:42;7.00;99.90
58469;DHT22;44257;44.804;10.220;2024-02-26T00:04:10;6.90;99.90
58469;DHT22;44257;44.804;10.220;2024-02-26T00:06:36;6.90;99.90
58469;DHT22;44257;44.804;10.220;2024-02-26T00:09:02;6.80;99.90
58469;DHT22;44257;44.804;10.220;2024-02-26T00:11:31;6.80;99.90
58469;DHT22;44257;44.804;10.220;2024-02-26T00:13:57;6.70;99.90
58469;DHT22;44257;44.804;10.220;2024-02-26T00:16:26;6.70;99.90
58469;DHT22;44257;44.804;10.220;2024-02-26T00:18:52;6.80;99.90
58469;DHT22;44257;44.804;10.220;2024-02-26T00:21:18;6.90;99.90
58469;DHT22;44257;44.804;10.220;2024-02-26T00:23:44;6.90;99.90
58469;DHT22;44257;44.804;10.220;2024-02-26T00:26:10;6.90;99.90
58469;DHT22;44257;44.804;10.220;2024-02-26T00:28:36;6.80;99.90
58469;DHT22;44257;44.804;10.220;2024-02-26T00:31:03;6.80;99.90
58469;DHT22;44257;44.804;10.220;2024-02-26T00:33:29;6.80;99.90
58469;DHT22;44257;44.804;10.220;2024-02-26T00:35:55;6.80;99.90
58469;DHT22;44257;44.804;10.220;2024-02-26T00:38:20;6.70;99.90
58469;DHT22;44257;44.804;10.220;2024-02-26T00:40:46;6.70;99.90
58469;DHT22;44257;44.804;10.220;2024-02-26T00:43:12;6.60;99.90
58469;DHT22;44257;44.804;10.220;2024-02-26T00:45:38;6.70;99.90
58469;DHT22;44257;44.804;10.220;2024-02-26T00:48:04;6.60;99.90
58469;DHT22;44257;44.804;10.220;2024-02-26T00:50:31;6.60;99.90
58469;DHT22;44257;44.804;10.220;2024-02-26T00:52:57;6.60;99.90
58469;DHT22;44257;44.804;10.220;2024-02-26T00:55:23;6.50;99.90
58469;DHT22;44257;44.804;10.220;2024-02-26T00:57:49;6.50;99.90
58469;DHT22;44257;44.804;10.220;2024-02-26T01:00:15;6.50;99.90
58469;DHT22;44257;44.804;10.220;2024-02-26T01:02:41;6.50;99.90
58469;DHT22;44257;44.804;10.220;2024-02-26T01:05:08;6.50;99.90
58469;DHT22;44257;44.804;10.220;2024-02-26T01:07:37;6.50;99.90
58469;DHT22;44257;44.804;10.220;2024-02-26T01:10:03;6.40;99.90
58469;DHT22;44257;44.804;10.220;2024-02-26T01:12:29;6.40;99.90
58469;DHT22;44257;44.804;10.220;2024-02-26T01:14:55;6.40;99.90
58469;DHT22;44257;44.804;10.220;2024-02-26T01:17:21;6.40;99.90
58469;DHT22;44257;44.804;10.220;2024-02-26T01:19:47;6.40;99.90
58469;DHT22;44257;44.804;10.220;2024-02-26T01:22:13;6.40;99.90
58469;DHT22;44257;44.804;10.220;2024-02-26T01:24:39;6.30;99.90
58469;DHT22;44257;44.804;10.220;2024-02-26T01:27:04;6.30;99.90
58469;DHT22;44257;44.804;10.220;2024-02-26T01:29:32;6.20;99.90
58469;DHT22;44257;44.804;10.220;2024-02-26T01:31:57;6.20;99.90
58469;DHT22;44257;44.804;10.220;2024-02-26T01:34:23;6.20;99.90
58469;DHT22;44257;44.804;10.220;2024-02-26T01:36:49;6.30;99.90
58469;DHT22;44257;44.804;10.220;2024-02-26T01:39:15;6.30;99.90
58469;DHT22;44257;44.804;10.220;2024-02-26T01:41:41;6.30;99.90
58469;DHT22;44257;44.804;10.220;2024-02-26T01:44:07;6.30;99.90
58469;DHT22;44257;44.804;10.220;2024-02-26T01:46:34;6.20;99.90
58469;DHT22;44257;44.804;10.220;2024-02-26T01:49:02;6.20;99.90
58469;DHT22;44257;44.804;10.220;2024-02-26T01:51:30;6.30;99.90
58469;DHT22;44257;44.804;10.220;2024-02-26T01:53:57;6.30;99.90
58469;DHT22;44257;44.804;10.220;2024-02-26T01:56:24;6.20;99.90
58469;DHT22;44257;44.804;10.220;2024-02-26T01:58:56;6.20;99.90
58469;DHT22;44257;44.804;10.220;2024-02-26T02:01:27;6.20;99.90
58469;DHT22;44257;44.804;10.220;2024-02-26T02:03:57;6.20;99.90
58469;DHT22;44257;44.804;10.220;2024-02-26T02:06:23;6.30;99.90
58469;DHT22;44257;44.804;10.220;2024-02-26T02:08:49;6.30;99.90
58469;DHT22;44257;44.804;10.220;2024-02-26T02:11:16;6.30;99.90
58469;DHT22;44257;44.804;10.220;2024-02-26T02:13:42;6.30;99.90
58469;DHT22;44257;44.804;10.220;2024-02-26T02:16:09;6.30;99.90
58469;DHT22;44257;44.804;10.220;2024-02-26T02:18:34;6.30;99.90
58469;DHT22;44257;44.804;10.220;2024-02-26T02:21:01;6.40;99.90
58469;DHT22;44257;44.804;10.220;2024-02-26T02:23:27;6.40;99.90
58469;DHT22;44257;44.804;10.220;2024-02-26T02:25:53;6.40;99.90
58469;DHT22;44257;44.804;10.220;2024-02-26T02:28:25;6.40;99.90
58469;DHT22;44257;44.804;10.220;2024-02-26T02:30:51;6.30;99.90
58469;DHT22;44257;44.804;10.220;2024-02-26T02:33:17;6.30;99.90
58469;DHT22;44257;44.804;10.220;2024-02-26T02:35:43;6.40;99.90
58469;DHT22;44257;44.804;10.220;2024-02-26T02:38:09;6.30;99.90
58469;DHT22;44257;44.804;10.220;2024-02-26T02:40:35;6.30;99.90
58469;DHT22;44257;44.804;10.220;2024-02-26T02:43:02;6.30;99.90
58469;DHT22;44257;44.804;10.220;2024-02-26T02:45:28;6.40;99.90
58469;DHT22;44257;44.804;10.220;2024-02-26T02:47:54;6.40;99.90
58469;DHT22;44257;44.804;10.220;2024-02-26T02:50:20;6.50;99.90
58469;DHT22;44257;44.804;10.220;2024-02-26T02:52:46;6.60;99.90
58469;DHT22;44257;44.804;10.220;2024-02-26T02:55:13;6.70;99.90
58469;DHT22;44257;44.804;10.220;2024-02-26T02:57:39;6.70;99.90
58469;DHT22;44257;44.804;10.220;2024-02-26T03:00:10;6.70;99.90
58469;DHT22;44257;44.804;10.220;2024-02-26T03:02:36;6.70;99.90
58469;DHT22;44257;44.804;10.220;2024-02-26T03:05:05;6.80;99.90
58469;DHT22;44257;44.804;10.220;2024-02-26T03:07:31;6.80;99.90
58469;DHT22;44257;44.804;10.220;2024-02-26T03:09:57;6.80;99.90
58469;DHT22;44257;44.804;10.220;2024-02-26T03:12:23;6.80;99.90
58469;DHT22;44257;44.804;10.220;2024-02-26T03:14:49;6.80;99.90
58469;DHT22;44257;44.804;10.220;2024-02-26T03:17:15;6.80;99.90
58469;DHT22;44257;44.804;10.220;2024-02-26T03:19:41;6.80;99.90
58469;DHT22;44257;44.804;10.220;2024-02-26T03:22:07;6.80;99.90
58469;DHT22;44257;44.804;10.220;2024-02-26T03:24:33;6.90;99.90
58469;DHT22;44257;44.804;10.220;2024-02-26T03:26:59;6.90;99.90
58469;DHT22;44257;44.804;10.220;2024-02-26T03:29:25;7.00;99.90
58469;DHT22;44257;44.804;10.220;2024-02-26T03:31:51;6.90;99.90
58469;DHT22;44257;44.804;10.220;2024-02-26T03:34:17;6.90;99.90
58469;DHT22;44257;44.804;10.220;2024-02-26T03:36:44;6.80;99.90
58469;DHT22;44257;44.804;10.220;2024-02-26T03:39:10;6.80;99.90
58469;DHT22;44257;44.804;10.220;2024-02-26T03:41:36;6.70;99.90
58469;DHT22;44257;44.804;10.220;2024-02-26T03:44:02;6.60;99.90
58469;DHT22;44257;44.804;10.220;2024-02-26T03:46:29;6.70;99.90
58469;DHT22;44257;44.804;10.220;2024-02-26T03:48:55;6.70;99.90
58469;DHT22;44257;44.804;10.220;2024-02-26T03:51:21;6.80;99.90
58469;DHT22;44257;44.804;10.220;2024-02-26T03:53:46;6.80;99.90
58469;DHT22;44257;44.804;10.220;2024-02-26T03:56:12;6.90;99.90
58469;DHT22;44257;44.804;10.220;2024-02-26T03:58:41;6.90;99.90
58469;DHT22;44257;44.804;10.220;2024-02-26T04:01:08;6.90;99.90
58469;DHT22;44257;44.804;10.220;2024-02-26T04:03:34;6.90;99.90
58469;DHT22;44257;44.804;10.220;2024-02-26T04:06:01;6.80;99.90
58469;DHT22;44257;44.804;10.220;2024-02-26T04:08:27;6.80;99.90
58469;DHT22;44257;44.804;10.220;2024-02-26T04:10:53;6.90;99.90
58469;DHT22;44257;44.804;10.220;2024-02-26T04:13:19;6.90;99.90
58469;DHT22;44257;44.804;10.220;2024-02-26T04:15:45;6.90;99.90
58469;DHT22;44257;44.804;10.220;2024-02-26T04:18:12;6.80;99.90
58469;DHT22;44257;44.804;10.220;2024-02-26T04:20:39;6.80;99.90
58469;DHT22;44257;44.804;10.220;2024-02-26T04:23:07;6.80;99.90
58469;DHT22;44257;44.804;10.220;2024-02-26T04:25:33;6.80;99.90
58469;DHT22;44257;44.804;10.220;2024-02-26T04:27:59;6.80;99.90
58469;DHT22;44257;44.804;10.220;2024-02-26T04:30:25;6.80;99.90
58469;DHT22;44257;44.804;10.220;2024-02-26T04:32:51;6.80;99.90
58469;DHT22;44257;44.804;10.220;2024-02-26T04:35:17;6.80;99.90
58469;DHT22;44257;44.804;10.220;2024-02-26T04:37:43;6.80;99.90
58469;DHT22;44257;44.804;10.220;2024-02-26T04:40:09;6.80;99.90
58469;DHT22;44257;44.804;10.220;2024-02-26T04:42:35;6.70;99.90
58469;DHT22;44257;44.804;10.220;2024-02-26T04:45:01;6.70;99.90
58469;DHT22;44257;44.804;10.220;2024-02-26T04:47:27;6.70;99.90
58469;DHT22;44257;44.804;10.220;2024-02-26T04:49:53;6.70;99.90
58469;DHT22;44257;44.804;10.220;2024-02-26T04:52:19;6.80;99.90
58469;DHT22;44257;44.804;10.220;2024-02-26T04:54:45;6.80;99.90
58469;DHT22;44257;44.804;10.220;2024-02-26T04:57:11;6.80;99.90
58469;DHT22;44257;44.804;10.220;2024-02-26T04:59:37;6.80;99.90
58469;DHT22;44257;44.804;10.220;2024-02-26T05:02:03;6.80;99.90
58469;DHT22;44257;44.804;10.220;2024-02-26T05:04:30;6.80;99.90
58469;DHT22;44257;44.804;10.220;2024-02-26T05:06:55;6.80;99.90
58469;DHT22;44257;44.804;10.220;2024-02-26T05:09:22;6.90;99.90
58469;DHT22;44257;44.804;10.220;2024-02-26T05:11:48;6.90;99.90
58469;DHT22;44257;44.804;10.220;2024-02-26T05:14:13;7.00;99.90
58469;DHT22;44257;44.804;10.220;2024-02-26T05:16:39;6.90;99.90
58469;DHT22;44257;44.804;10.220;2024-02-26T05:19:05;6.80;99.90
58469;DHT22;44257;44.804;10.220;2024-02-26T05:21:31;6.80;99.90
58469;DHT22;44257;44.804;10.220;2024-02-26T05:23:57;6.80;99.90
58469;DHT22;44257;44.804;10.220;2024-02-26T05:26:23;6.80;99.90
58469;DHT22;44257;44.804;10.220;2024-02-26T05:28:49;6.80;99.90
58469;DHT22;44257;44.804;10.220;2024-02-26T05:31:16;6.80;99.90
58469;DHT22;44257;44.804;10.220;2024-02-26T05:33:42;6.80;99.90
58469;DHT22;44257;44.804;10.220;2024-02-26T05:36:08;6.90;99.90
58469;DHT22;44257;44.804;10.220;2024-02-26T05:38:34;6.90;99.90
58469;DHT22;44257;44.804;10.220;2024-02-26T05:41:00;7.10;99.90
58469;DHT22;44257;44.804;10.220;2024-02-26T05:43:26;7.00;99.90
58469;DHT22;44257;44.804;10.220;2024-02-26T05:45:52;7.00;99.90
58469;DHT22;44257;44.804;10.220;2024-02-26T05:48:19;7.00;99.90
58469;DHT22;44257;44.804;10.220;2024-02-26T05:50:46;7.10;99.90
58469;DHT22;44257;44.804;10.220;2024-02-26T05:53:12;7.00;99.90
58469;DHT22;44257;44.804;10.220;2024-02-26T05:55:38;7.00;99.90
58469;DHT22;44257;44.804;10.220;2024-02-26T05:58:04;6.90;99.90
58469;DHT22;44257;44.804;10.220;2024-02-26T06:00:30;7.00;99.90
58469;DHT22;44257;44.804;10.220;2024-02-26T06:02:56;6.90;99.90
58469;DHT22;44257;44.804;10.220;2024-02-26T06:05:22;7.00;99.90
58469;DHT22;44257;44.804;10.220;2024-02-26T06:07:48;7.00;99.90
58469;DHT22;44257;44.804;10.220;2024-02-26T06:10:14;7.00;99.90
58469;DHT22;44257;44.804;10.220;2024-02-26T06:12:40;7.00;99.90
58469;DHT22;44257;44.804;10.220;2024-02-26T06:15:06;7.00;99.90
58469;DHT22;44257;44.804;10.220;2024-02-26T06:17:32;7.00;99.90
58469;DHT22;44257;44.804;10.220;2024-02-26T06:19:59;7.10;99.90
58469;DHT22;44257;44.804;10.220;2024-02-26T06:22:26;7.00;99.90
58469;DHT22;44257;44.804;10.220;2024-02-26T06:24:52;7.10;99.90
58469;DHT22;44257;44.804;10.220;2024-02-26T06:27:18;7.10;99.90
58469;DHT22;44257;44.804;10.220;2024-02-26T06:29:43;7.10;99.90
58469;DHT22;44257;44.804;10.220;2024-02-26T06:32:09;7.10;99.90
58469;DHT22;44257;44.804;10.220;2024-02-26T06:34:35;7.10;99.90
58469;DHT22;44257;44.804;10.220;2024-02-26T06:37:03;7.10;99.90
58469;DHT22;44257;44.804;10.220;2024-02-26T06:39:29;7.10;99.90
58469;DHT22;44257;44.804;10.220;2024-02-26T06:41:55;7.10;99.90
58469;DHT22;44257;44.804;10.220;2024-02-26T06:44:27;7.10;99.90
58469;DHT22;44257;44.804;10.220;2024-02-26T06:47:00;7.10;99.90
58469;DHT22;44257;44.804;10.220;2024-02-26T06:49:27;7.10;99.90
58469;DHT22;44257;44.804;10.220;2024-02-26T06:51:53;7.10;99.90
58469;DHT22;44257;44.804;10.220;2024-02-26T06:54:19;7.10;99.90
58469;DHT22;44257;44.804;10.220;2024-02-26T06:56:46;7.10;99.90
58469;DHT22;44257;44.804;10.220;2024-02-26T06:59:12;7.10;99.90
58469;DHT22;44257;44.804;10.220;2024-02-26T07:01:41;7.20;99.90
58469;DHT22;44257;44.804;10.220;2024-02-26T07:04:07;7.20;99.90
58469;DHT22;44257;44.804;10.220;2024-02-26T07:06:33;7.20;99.90
58469;DHT22;44257;44.804;10.220;2024-02-26T07:08:59;7.20;99.90
58469;DHT22;44257;44.804;10.220;2024-02-26T07:11:24;7.20;99.90
58469;DHT22;44257;44.804;10.220;2024-02-26T07:13:50;7.20;99.90
58469;DHT22;44257;44.804;10.220;2024-02-26T07:16:16;7.20;99.90
58469;DHT22;44257;44.804;10.220;2024-02-26T07:18:42;7.30;99.90
58469;DHT22;44257;44.804;10.220;2024-02-26T07:21:14;7.30;99.90
58469;DHT22;44257;44.804;10.220;2024-02-26T07:23:40;7.40;99.90
58469;DHT22;44257;44.804;10.220;2024-02-26T07:26:06;7.40;99.90
58469;DHT22;44257;44.804;10.220;2024-02-26T07:28:33;7.40;99.90
58469;DHT22;44257;44.804;10.220;2024-02-26T07:30:59;7.40;99.90
58469;DHT22;44257;44.804;10.220;2024-02-26T07:33:25;7.40;99.90
58469;DHT22;44257;44.804;10.220;2024-02-26T07:35:51;7.40;99.90
58469;DHT22;44257;44.804;10.220;2024-02-26T07:38:19;7.50;99.90
58469;DHT22;44257;44.804;10.220;2024-02-26T07:40:45;7.50;99.90
58469;DHT22;44257;44.804;10.220;2024-02-26T07:43:11;7.50;99.90
58469;DHT22;44257;44.804;10.220;2024-02-26T07:45:37;7.50;99.90
58469;DHT22;44257;44.804;10.220;2024-02-26T07:48:03;7.50;99.90
58469;DHT22;44257;44.804;10.220;2024-02-26T07:50:29;7.50;99.90
58469;DHT22;44257;44.804;10.220;2024-02-26T07:52:55;7.50;99.90
58469;DHT22;44257;44.804;10.220;2024-02-26T07:55:21;7.50;99.90
58469;DHT22;44257;44.804;10.220;2024-02-26T07:57:47;7.50;99.90
58469;DHT22;44257;44.804;10.220;2024-02-26T08:00:14;7.60;99.90
58469;DHT22;44257;44.804;10.220;2024-02-26T08:02:43;7.60;99.90
58469;DHT22;44257;44.804;10.220;2024-02-26T08:05:09;7.60;99.90
58469;DHT22;44257;44.804;10.220;2024-02-26T08:07:35;7.60;99.90
58469;DHT22;44257;44.804;10.220;2024-02-26T08:10:01;7.60;99.90
58469;DHT22;44257;44.804;10.220;2024-02-26T08:12:27;7.60;99.90
58469;DHT22;44257;44.804;10.220;2024-02-26T08:14:53;7.60;99.90
58469;DHT22;44257;44.804;10.220;2024-02-26T08:17:19;7.60;99.90
58469;DHT22;44257;44.804;10.220;2024-02-26T08:19:45;7.60;99.90
58469;DHT22;44257;44.804;10.220;2024-02-26T08:22:11;7.70;99.90
58469;DHT22;44257;44.804;10.220;2024-02-26T08:24:44;7.70;99.90
58469;DHT22;44257;44.804;10.220;2024-02-26T08:27:10;7.70;99.90
58469;DHT22;44257;44.804;10.220;2024-02-26T08:29:36;7.70;99.90
58469;DHT22;44257;44.804;10.220;2024-02-26T08:32:02;7.80;99.90
58469;DHT22;44257;44.804;10.220;2024-02-26T08:34:28;7.90;99.90
58469;DHT22;44257;44.804;10.220;2024-02-26T08:36:54;8.00;99.90
58469;DHT22;44257;44.804;10.220;2024-02-26T08:39:20;8.00;99.90
58469;DHT22;44257;44.804;10.220;2024-02-26T08:41:46;8.00;99.90
58469;DHT22;44257;44.804;10.220;2024-02-26T08:44:12;8.00;99.90
58469;DHT22;44257;44.804;10.220;2024-02-26T08:46:38;8.00;99.90
58469;DHT22;44257;44.804;10.220;2024-02-26T08:49:04;8.00;99.90
58469;DHT22;44257;44.804;10.220;2024-02-26T08:51:30;8.10;99.90
58469;DHT22;44257;44.804;10.220;2024-02-26T08:53:56;8.30;99.90
58469;DHT22;44257;44.804;10.220;2024-02-26T08:56:22;8.40;99.90
58469;DHT22;44257;44.804;10.220;2024-02-26T08:58:48;8.40;99.90
58469;DHT22;44257;44.804;10.220;2024-02-26T09:01:19;8.40;99.90
58469;DHT22;44257;44.804;10.220;2024-02-26T09:03:45;8.40;99.90
58469;DHT22;44257;44.804;10.220;2024-02-26T09:06:11;8.40;99.90
58469;DHT22;44257;44.804;10.220;2024-02-26T09:08:40;8.50;99.90
58469;DHT22;44257;44.804;10.220;2024-02-26T09:11:05;8.50;99.90
58469;DHT22;44257;44.804;10.220;2024-02-26T09:13:32;8.50;99.90
58469;DHT22;44257;44.804;10.220;2024-02-26T09:15:59;8.50;99.90
58469;DHT22;44257;44.804;10.220;2024-02-26T09:18:25;8.50;99.90
58469;DHT22;44257;44.804;10.220;2024-02-26T09:20:50;8.50;99.90
58469;DHT22;44257;44.804;10.220;2024-02-26T09:23:16;8.60;99.90
58469;DHT22;44257;44.804;10.220;2024-02-26T09:25:42;8.60;99.90
58469;DHT22;44257;44.804;10.220;2024-02-26T09:28:08;8.70;99.90
58469;DHT22;44257;44.804;10.220;2024-02-26T09:30:34;8.80;99.90
58469;DHT22;44257;44.804;10.220;2024-02-26T09:33:00;8.90;99.90
58469;DHT22;44257;44.804;10.220;2024-02-26T09:35:26;8.90;99.90
58469;DHT22;44257;44.804;10.220;2024-02-26T09:37:52;9.00;99.90
58469;DHT22;44257;44.804;10.220;2024-02-26T09:40:19;9.10;99.90
58469;DHT22;44257;44.804;10.220;2024-02-26T09:42:45;9.10;99.90
58469;DHT22;44257;44.804;10.220;2024-02-26T09:45:17;9.10;99.90
58469;DHT22;44257;44.804;10.220;2024-02-26T09:47:43;9.20;99.90
58469;DHT22;44257;44.804;10.220;2024-02-26T09:50:10;9.30;99.90
58469;DHT22;44257;44.804;10.220;2024-02-26T09:52:41;9.30;99.90
58469;DHT22;44257;44.804;10.220;2024-02-26T09:55:08;9.30;99.90
58469;DHT22;44257;44.804;10.220;2024-02-26T09:57:37;9.30;99.90
58469;DHT22;44257;44.804;10.220;2024-02-26T10:00:04;9.30;99.90
58469;DHT22;44257;44.804;10.220;2024-02-26T10:02:36;9.40;99.90
58469;DHT22;44257;44.804;10.220;2024-02-26T10:05:03;9.40;99.90
58469;DHT22;44257;44.804;10.220;2024-02-26T10:07:31;9.50;99.90
58469;DHT22;44257;44.804;10.220;2024-02-26T10:09:58;9.50;99.90
58469;DHT22;44257;44.804;10.220;2024-02-26T10:12:24;9.50;99.90
58469;DHT22;44257;44.804;10.220;2024-02-26T10:14:51;9.50;99.90
58469;DHT22;44257;44.804;10.220;2024-02-26T10:17:19;9.50;99.90
58469;DHT22;44257;44.804;10.220;2024-02-26T10:19:45;9.50;99.90
58469;DHT22;44257;44.804;10.220;2024-02-26T10:22:11;9.50;99.90
58469;DHT22;44257;44.804;10.220;2024-02-26T10:24:37;9.50;99.90
58469;DHT22;44257;44.804;10.220;2024-02-26T10:27:03;9.60;99.90
58469;DHT22;44257;44.804;10.220;2024-02-26T10:29:30;9.60;99.90
58469;DHT22;44257;44.804;10.220;2024-02-26T10:31:56;9.70;99.90
58469;DHT22;44257;44.804;10.220;2024-02-26T10:34:22;9.70;99.90
58469;DHT22;44257;44.804;10.220;2024-02-26T10:36:49;9.70;99.90
58469;DHT22;44257;44.804;10.220;2024-02-26T10:39:15;9.70;99.90
58469;DHT22;44257;44.804;10.220;2024-02-26T10:41:43;9.70;99.90
58469;DHT22;44257;44.804;10.220;2024-02-26T10:44:12;9.80;99.90
58469;DHT22;44257;44.804;10.220;2024-02-26T10:46:41;9.80;99.90
58469;DHT22;44257;44.804;10.220;2024-02-26T10:49:14;9.90;99.90
58469;DHT22;44257;44.804;10.220;2024-02-26T10:51:44;9.90;99.90
58469;DHT22;44257;44.804;10.220;2024-02-26T10:54:15;10.00;99.90
58469;DHT22;44257;44.804;10.220;2024-02-26T10:56:42;10.10;99.90
58469;DHT22;44257;44.804;10.220;2024-02-26T10:59:12;10.00;99.90
58469;DHT22;44257;44.804;10.220;2024-02-26T11:01:39;10.00;99.90
58469;DHT22;44257;44.804;10.220;2024-02-26T11:04:08;10.00;99.90
58469;DHT22;44257;44.804;10.220;2024-02-26T11:06:36;10.00;99.90
58469;DHT22;44257;44.804;10.220;2024-02-26T11:09:03;9.90;99.90
58469;DHT22;44257;44.804;10.220;2024-02-26T11:11:32;9.80;99.90
58469;DHT22;44257;44.804;10.220;2024-02-26T11:14:01;9.70;99.90
58469;DHT22;44257;44.804;10.220;2024-02-26T11:16:29;9.70;99.90
58469;DHT22;44257;44.804;10.220;2024-02-26T11:18:55;9.70;99.90
58469;DHT22;44257;44.804;10.220;2024-02-26T11:21:23;9.60;99.90
58469;DHT22;44257;44.804;10.220;2024-02-26T11:24:06;9.60;99.90
58469;DHT22;44257;44.804;10.220;2024-02-26T11:26:35;9.70;99.90
58469;DHT22;44257;44.804;10.220;2024-02-26T11:29:02;9.80;99.90
58469;DHT22;44257;44.804;10.220;2024-02-26T11:31:29;9.90;99.90
58469;DHT22;44257;44.804;10.220;2024-02-26T11:33:56;10.10;99.90
58469;DHT22;44257;44.804;10.220;2024-02-26T11:36:23;10.20;99.90
58469;DHT22;44257;44.804;10.220;2024-02-26T11:38:50;10.30;99.90
58469;DHT22;44257;44.804;10.220;2024-02-26T11:41:17;10.30;99.90
58469;DHT22;44257;44.804;10.220;2024-02-26T11:43:57;10.30;99.90
58469;DHT22;44257;44.804;10.220;2024-02-26T11:46:43;10.30;99.90
58469;DHT22;44257;44.804;10.220;2024-02-26T11:51:57;10.30;99.90
58469;DHT22;44257;44.804;10.220;2024-02-26T11:57:39;10.30;99.90
58469;DHT22;44257;44.804;10.220;2024-02-26T12:00:15;10.30;99.90
58469;DHT22;44257;44.804;10.220;2024-02-26T12:02:52;10.50;99.90
58469;DHT22;44257;44.804;10.220;2024-02-26T12:05:27;10.50;99.90
58469;DHT22;44257;44.804;10.220;2024-02-26T12:08:04;10.60;99.90
58469;DHT22;44257;44.804;10.220;2024-02-26T12:10:41;10.70;99.90
58469;DHT22;44257;44.804;10.220;2024-02-26T12:13:15;10.90;99.90
58469;DHT22;44257;44.804;10.220;2024-02-26T12:15:46;11.10;99.90
58469;DHT22;44257;44.804;10.220;2024-02-26T12:18:20;11.10;99.90
58469;DHT22;44257;44.804;10.220;2024-02-26T12:20:47;11.20;99.90
58469;DHT22;44257;44.804;10.220;2024-02-26T12:23:23;11.20;99.90
58469;DHT22;44257;44.804;10.220;2024-02-26T12:25:49;11.30;99.90
58469;DHT22;44257;44.804;10.220;2024-02-26T12:28:15;11.20;99.90
58469;DHT22;44257;44.804;10.220;2024-02-26T12:30:41;11.10;99.90
58469;DHT22;44257;44.804;10.220;2024-02-26T12:33:07;11.00;99.90
58469;DHT22;44257;44.804;10.220;2024-02-26T12:35:35;10.90;99.90
58469;DHT22;44257;44.804;10.220;2024-02-26T12:38:01;10.90;99.90
58469;DHT22;44257;44.804;10.220;2024-02-26T12:40:28;10.90;99.90
58469;DHT22;44257;44.804;10.220;2024-02-26T12:42:54;10.80;99.90
58469;DHT22;44257;44.804;10.220;2024-02-26T12:45:20;10.70;99.90
58469;DHT22;44257;44.804;10.220;2024-02-26T12:47:46;10.60;99.90
58469;DHT22;44257;44.804;10.220;2024-02-26T12:50:13;10.60;99.90
58469;DHT22;44257;44.804;10.220;2024-02-26T12:52:43;10.60;99.90
58469;DHT22;44257;44.804;10.220;2024-02-26T12:55:11;10.60;99.90
58469;DHT22;44257;44.804;10.220;2024-02-26T12:57:38;10.60;99.90
58469;DHT22;44257;44.804;10.220;2024-02-26T13:00:06;10.70;99.90
58469;DHT22;44257;44.804;10.220;2024-02-26T13:02:36;10.70;99.90
58469;DHT22;44257;44.804;10.220;2024-02-26T13:05:07;10.70;99.90
58469;DHT22;44257;44.804;10.220;2024-02-26T13:07:34;10.70;99.90
58469;DHT22;44257;44.804;10.220;2024-02-26T13:10:00;10.80;99.90
58469;DHT22;44257;44.804;10.220;2024-02-26T13:12:26;11.00;99.90
58469;DHT22;44257;44.804;10.220;2024-02-26T13:15:02;11.10;99.90
58469;DHT22;44257;44.804;10.220;2024-02-26T13:17:32;11.20;99.90
58469;DHT22;44257;44.804;10.220;2024-02-26T13:19:58;11.40;99.90
58469;DHT22;44257;44.804;10.220;2024-02-26T13:22:24;11.40;99.90
58469;DHT22;44257;44.804;10.220;2024-02-26T13:24:55;11.50;99.90
58469;DHT22;44257;44.804;10.220;2024-02-26T13:27:24;11.40;99.90
58469;DHT22;44257;44.804;10.220;2024-02-26T13:30:09;11.30;99.90
58469;DHT22;44257;44.804;10.220;2024-02-26T13:32:37;11.10;99.90
58469;DHT22;44257;44.804;10.220;2024-02-26T13:35:08;10.90;99.90
58469;DHT22;44257;44.804;10.220;2024-02-26T13:37:35;10.70;99.90
58469;DHT22;44257;44.804;10.220;2024-02-26T13:40:01;10.50;99.90
58469;DHT22;44257;44.804;10.220;2024-02-26T13:42:31;10.40;99.90
58469;DHT22;44257;44.804;10.220;2024-02-26T13:44:57;10.30;99.90
58469;DHT22;44257;44.804;10.220;2024-02-26T13:47:22;10.20;99.90
58469;DHT22;44257;44.804;10.220;2024-02-26T13:49:48;10.20;99.90
58469;DHT22;44257;44.804;10.220;2024-02-26T13:52:14;10.20;99.90
58469;DHT22;44257;44.804;10.220;2024-02-26T13:54:40;10.30;99.90
58469;DHT22;44257;44.804;10.220;2024-02-26T13:57:06;10.40;99.90
58469;DHT22;44257;44.804;10.220;2024-02-26T13:59:32;10.60;99.90
58469;DHT22;44257;44.804;10.220;2024-02-26T14:01:58;10.70;99.90
58469;DHT22;44257;44.804;10.220;2024-02-26T14:04:24;10.70;99.90
58469;DHT22;44257;44.804;10.220;2024-02-26T14:06:51;10.60;99.90
58469;DHT22;44257;44.804;10.220;2024-02-26T14:09:16;10.40;99.90
58469;DHT22;44257;44.804;10.220;2024-02-26T14:11:48;10.30;99.90
58469;DHT22;44257;44.804;10.220;2024-02-26T14:14:13;10.20;99.90
58469;DHT22;44257;44.804;10.220;2024-02-26T14:16:39;10.10;99.90
58469;DHT22;44257;44.804;10.220;2024-02-26T14:19:05;10.00;99.90
58469;DHT22;44257;44.804;10.220;2024-02-26T14:21:31;10.10;99.90
58469;DHT22;44257;44.804;10.220;2024-02-26T14:23:57;10.00;99.90
58469;DHT22;44257;44.804;10.220;2024-02-26T14:26:23;10.00;99.90
58469;DHT22;44257;44.804;10.220;2024-02-26T14:28:49;10.10;99.90
58469;DHT22;44257;44.804;10.220;2024-02-26T14:31:18;10.00;99.90
58469;DHT22;44257;44.804;10.220;2024-02-26T14:33:44;10.00;99.90
58469;DHT22;44257;44.804;10.220;2024-02-26T14:36:11;10.00;99.90
58469;DHT22;44257;44.804;10.220;2024-02-26T14:38:37;10.10;99.90
58469;DHT22;44257;44.804;10.220;2024-02-26T14:41:05;10.10;99.90
58469;DHT22;44257;44.804;10.220;2024-02-26T14:43:31;10.10;99.90
58469;DHT22;44257;44.804;10.220;2024-02-26T14:45:58;10.10;99.90
58469;DHT22;44257;44.804;10.220;2024-02-26T14:48:24;10.10;99.90
58469;DHT22;44257;44.804;10.220;2024-02-26T14:50:50;10.10;99.90
58469;DHT22;44257;44.804;10.220;2024-02-26T14:53:17;10.20;99.90
58469;DHT22;44257;44.804;10.220;2024-02-26T14:55:43;10.10;99.90
58469;DHT22;44257;44.804;10.220;2024-02-26T14:58:09;10.10;99.90
58469;DHT22;44257;44.804;10.220;2024-02-26T15:00:38;10.10;99.90
58469;DHT22;44257;44.804;10.220;2024-02-26T15:03:04;10.10;99.90
58469;DHT22;44257;44.804;10.220;2024-02-26T15:05:30;10.10;99.90
58469;DHT22;44257;44.804;10.220;2024-02-26T15:07:55;10.10;99.90
58469;DHT22;44257;44.804;10.220;2024-02-26T15:10:22;10.10;99.90
58469;DHT22;44257;44.804;10.220;2024-02-26T15:12:48;10.20;99.90
58469;DHT22;44257;44.804;10.220;2024-02-26T15:15:14;10.20;99.90
58469;DHT22;44257;44.804;10.220;2024-02-26T15:17:39;10.20;99.90
58469;DHT22;44257;44.804;10.220;2024-02-26T15:20:06;10.20;99.90
58469;DHT22;44257;44.804;10.220;2024-02-26T15:22:33;10.20;99.90
58469;DHT22;44257;44.804;10.220;2024-02-26T15:24:59;10.10;99.90
58469;DHT22;44257;44.804;10.220;2024-02-26T15:27:25;10.10;99.90
58469;DHT22;44257;44.804;10.220;2024-02-26T15:29:51;10.00;99.90
58469;DHT22;44257;44.804;10.220;2024-02-26T15:32:24;10.00;99.90